sensor_id;sensor_type;location;lat;lon;timestamp;P1;P2;P0
21358;PMS7003;13506;50.852;20.632;2022-11-10T00:01:11;66.75;52.50;33.00
21358;PMS7003;13506;50.852;20.632;2022-11-10T00:03:57;65.00;53.50;34.00
21358;PMS7003;13506;50.852;20.632;2022-11-10T00:06:45;75.50;58.00;36.75
21358;PMS7003;13506;50.852;20.632;2022-11-10T00:09:32;74.00;58.50;37.50
21358;PMS7003;13506;50.852;20.632;2022-11-10T00:12:18;75.25;57.50;37.00
21358;PMS7003;13506;50.852;20.632;2022-11-10T00:15:07;79.00;61.50;38.75
21358;PMS7003;13506;50.852;20.632;2022-11-10T00:18:13;74.75;59.00;38.00
21358;PMS7003;13506;50.852;20.632;2022-11-10T00:21:02;72.25;56.50;36.75
21358;PMS7003;13506;50.852;20.632;2022-11-10T00:23:51;72.25;57.50;35.25
21358;PMS7003;13506;50.852;20.632;2022-11-10T00:26:38;79.00;60.50;38.25
21358;PMS7003;13506;50.852;20.632;2022-11-10T00:29:24;74.00;58.75;36.75
21358;PMS7003;13506;50.852;20.632;2022-11-10T00:32:12;71.25;54.75;35.25
21358;PMS7003;13506;50.852;20.632;2022-11-10T00:34:58;75.00;57.75;39.25
21358;PMS7003;13506;50.852;20.632;2022-11-10T00:37:44;68.25;53.50;33.75
21358;PMS7003;13506;50.852;20.632;2022-11-10T00:40:33;68.25;55.00;34.25
21358;PMS7003;13506;50.852;20.632;2022-11-10T00:43:19;73.00;58.00;38.00
21358;PMS7003;13506;50.852;20.632;2022-11-10T00:46:05;77.75;60.75;37.50
21358;PMS7003;13506;50.852;20.632;2022-11-10T00:48:53;72.25;57.50;36.75
21358;PMS7003;13506;50.852;20.632;2022-11-10T00:51:39;67.75;55.00;35.50
21358;PMS7003;13506;50.852;20.632;2022-11-10T00:54:25;76.00;58.00;36.00
21358;PMS7003;13506;50.852;20.632;2022-11-10T00:57:11;61.25;50.00;31.50
21358;PMS7003;13506;50.852;20.632;2022-11-10T00:59:57;64.50;49.75;31.25
21358;PMS7003;13506;50.852;20.632;2022-11-10T01:02:43;63.00;51.75;32.00
21358;PMS7003;13506;50.852;20.632;2022-11-10T01:05:34;64.00;49.25;31.75
21358;PMS7003;13506;50.852;20.632;2022-11-10T01:08:21;69.25;54.50;33.00
21358;PMS7003;13506;50.852;20.632;2022-11-10T01:11:09;66.00;49.75;31.75
21358;PMS7003;13506;50.852;20.632;2022-11-10T01:13:58;60.75;47.50;29.75
21358;PMS7003;13506;50.852;20.632;2022-11-10T01:16:45;53.50;46.00;28.50
21358;PMS7003;13506;50.852;20.632;2022-11-10T01:19:31;53.20;42.20;27.20
21358;PMS7003;13506;50.852;20.632;2022-11-10T01:22:18;59.25;45.25;28.00
21358;PMS7003;13506;50.852;20.632;2022-11-10T01:25:05;66.00;47.75;29.75
21358;PMS7003;13506;50.852;20.632;2022-11-10T01:27:52;58.75;44.75;27.00
21358;PMS7003;13506;50.852;20.632;2022-11-10T01:30:38;61.25;46.75;28.75
21358;PMS7003;13506;50.852;20.632;2022-11-10T01:33:25;57.25;46.00;29.25
21358;PMS7003;13506;50.852;20.632;2022-11-10T01:36:11;65.25;52.00;33.25
21358;PMS7003;13506;50.852;20.632;2022-11-10T01:38:59;62.25;48.00;29.75
21358;PMS7003;13506;50.852;20.632;2022-11-10T01:41:45;57.50;45.75;29.50
21358;PMS7003;13506;50.852;20.632;2022-11-10T01:44:33;65.25;48.00;31.00
21358;PMS7003;13506;50.852;20.632;2022-11-10T01:47:19;64.00;48.25;31.50
21358;PMS7003;13506;50.852;20.632;2022-11-10T01:50:05;51.75;46.25;29.00
21358;PMS7003;13506;50.852;20.632;2022-11-10T01:52:54;54.75;47.25;28.50
21358;PMS7003;13506;50.852;20.632;2022-11-10T01:55:46;64.75;53.25;31.50
21358;PMS7003;13506;50.852;20.632;2022-11-10T01:58:34;59.00;46.50;27.50
21358;PMS7003;13506;50.852;20.632;2022-11-10T02:01:26;56.25;44.25;27.75
21358;PMS7003;13506;50.852;20.632;2022-11-10T02:04:14;53.00;46.00;28.75
21358;PMS7003;13506;50.852;20.632;2022-11-10T02:07:03;56.75;43.75;27.00
21358;PMS7003;13506;50.852;20.632;2022-11-10T02:09:51;56.25;43.00;28.50
21358;PMS7003;13506;50.852;20.632;2022-11-10T02:12:39;47.25;42.50;26.00
21358;PMS7003;13506;50.852;20.632;2022-11-10T02:15:26;60.00;47.00;29.75
21358;PMS7003;13506;50.852;20.632;2022-11-10T02:18:12;54.75;44.50;27.00
21358;PMS7003;13506;50.852;20.632;2022-11-10T02:20:59;56.50;46.25;29.25
21358;PMS7003;13506;50.852;20.632;2022-11-10T02:23:49;62.50;48.25;30.25
21358;PMS7003;13506;50.852;20.632;2022-11-10T02:26:38;62.50;48.75;30.50
21358;PMS7003;13506;50.852;20.632;2022-11-10T02:29:29;53.50;42.00;26.75
21358;PMS7003;13506;50.852;20.632;2022-11-10T02:32:16;55.25;47.00;29.50
21358;PMS7003;13506;50.852;20.632;2022-11-10T02:35:02;57.75;46.25;30.00
21358;PMS7003;13506;50.852;20.632;2022-11-10T02:37:51;71.25;55.00;34.50
21358;PMS7003;13506;50.852;20.632;2022-11-10T02:40:37;67.25;53.25;34.00
21358;PMS7003;13506;50.852;20.632;2022-11-10T02:43:24;76.50;55.00;35.75
21358;PMS7003;13506;50.852;20.632;2022-11-10T02:46:10;66.25;51.50;32.25
21358;PMS7003;13506;50.852;20.632;2022-11-10T02:48:56;67.00;53.75;33.25
21358;PMS7003;13506;50.852;20.632;2022-11-10T02:51:42;56.50;46.50;29.00
21358;PMS7003;13506;50.852;20.632;2022-11-10T02:54:30;53.50;46.25;28.25
21358;PMS7003;13506;50.852;20.632;2022-11-10T02:57:16;54.00;45.25;26.50
21358;PMS7003;13506;50.852;20.632;2022-11-10T03:00:02;57.25;46.25;29.75
21358;PMS7003;13506;50.852;20.632;2022-11-10T03:02:54;51.50;39.25;24.50
21358;PMS7003;13506;50.852;20.632;2022-11-10T03:05:41;64.75;48.00;31.00
21358;PMS7003;13506;50.852;20.632;2022-11-10T03:08:27;65.75;51.00;32.75
21358;PMS7003;13506;50.852;20.632;2022-11-10T03:11:15;60.00;51.00;34.00
21358;PMS7003;13506;50.852;20.632;2022-11-10T03:14:00;75.25;58.75;37.50
21358;PMS7003;13506;50.852;20.632;2022-11-10T03:16:48;72.00;57.75;36.50
21358;PMS7003;13506;50.852;20.632;2022-11-10T03:19:33;62.25;48.75;33.00
21358;PMS7003;13506;50.852;20.632;2022-11-10T03:22:20;54.50;44.00;29.50
21358;PMS7003;13506;50.852;20.632;2022-11-10T03:25:07;59.50;43.75;28.00
21358;PMS7003;13506;50.852;20.632;2022-11-10T03:27:56;62.25;48.75;30.00
21358;PMS7003;13506;50.852;20.632;2022-11-10T03:30:43;49.50;43.75;27.00
21358;PMS7003;13506;50.852;20.632;2022-11-10T03:33:30;62.50;47.25;28.00
21358;PMS7003;13506;50.852;20.632;2022-11-10T03:36:16;57.50;43.75;28.00
21358;PMS7003;13506;50.852;20.632;2022-11-10T03:39:02;56.75;45.75;27.00
21358;PMS7003;13506;50.852;20.632;2022-11-10T03:41:48;56.25;46.00;27.25
21358;PMS7003;13506;50.852;20.632;2022-11-10T03:44:36;54.75;44.00;27.00
21358;PMS7003;13506;50.852;20.632;2022-11-10T03:47:23;64.50;48.75;30.00
21358;PMS7003;13506;50.852;20.632;2022-11-10T03:50:09;49.75;41.50;26.75
21358;PMS7003;13506;50.852;20.632;2022-11-10T03:52:56;68.00;55.25;32.75
21358;PMS7003;13506;50.852;20.632;2022-11-10T03:55:42;67.00;50.50;30.50
21358;PMS7003;13506;50.852;20.632;2022-11-10T03:58:28;69.25;54.00;37.00
21358;PMS7003;13506;50.852;20.632;2022-11-10T04:01:17;73.75;56.00;33.00
21358;PMS7003;13506;50.852;20.632;2022-11-10T04:04:04;58.00;47.50;29.50
21358;PMS7003;13506;50.852;20.632;2022-11-10T04:07:11;55.50;46.25;29.50
21358;PMS7003;13506;50.852;20.632;2022-11-10T04:10:15;56.00;45.00;28.50
21358;PMS7003;13506;50.852;20.632;2022-11-10T04:13:01;53.00;42.50;27.00
21358;PMS7003;13506;50.852;20.632;2022-11-10T04:16:06;44.00;40.75;24.25
21358;PMS7003;13506;50.852;20.632;2022-11-10T04:18:54;50.75;42.25;27.75
21358;PMS7003;13506;50.852;20.632;2022-11-10T04:21:40;58.00;46.00;29.75
21358;PMS7003;13506;50.852;20.632;2022-11-10T04:24:27;47.50;42.75;27.75
21358;PMS7003;13506;50.852;20.632;2022-11-10T04:27:13;52.00;42.40;27.40
21358;PMS7003;13506;50.852;20.632;2022-11-10T04:30:00;41.25;38.75;26.75
21358;PMS7003;13506;50.852;20.632;2022-11-10T04:32:47;45.00;38.20;24.40
21358;PMS7003;13506;50.852;20.632;2022-11-10T04:35:39;49.80;42.40;26.40
21358;PMS7003;13506;50.852;20.632;2022-11-10T04:38:26;52.80;43.60;28.20
21358;PMS7003;13506;50.852;20.632;2022-11-10T04:41:12;49.80;40.40;25.40
21358;PMS7003;13506;50.852;20.632;2022-11-10T04:43:59;65.25;53.25;33.25
21358;PMS7003;13506;50.852;20.632;2022-11-10T04:46:47;68.00;53.25;32.50
21358;PMS7003;13506;50.852;20.632;2022-11-10T04:49:34;60.50;50.00;32.75
21358;PMS7003;13506;50.852;20.632;2022-11-10T04:52:22;64.25;50.25;30.75
21358;PMS7003;13506;50.852;20.632;2022-11-10T04:55:09;64.75;51.25;33.00
21358;PMS7003;13506;50.852;20.632;2022-11-10T04:57:55;66.00;48.50;31.75
21358;PMS7003;13506;50.852;20.632;2022-11-10T05:00:42;49.00;42.75;25.50
21358;PMS7003;13506;50.852;20.632;2022-11-10T05:03:29;53.50;45.00;27.75
21358;PMS7003;13506;50.852;20.632;2022-11-10T05:06:16;52.40;42.80;25.60
21358;PMS7003;13506;50.852;20.632;2022-11-10T05:09:04;47.75;41.75;26.50
21358;PMS7003;13506;50.852;20.632;2022-11-10T05:11:50;49.00;43.20;28.40
21358;PMS7003;13506;50.852;20.632;2022-11-10T05:14:37;48.20;43.40;27.00
21358;PMS7003;13506;50.852;20.632;2022-11-10T05:17:23;45.80;41.00;27.00
21358;PMS7003;13506;50.852;20.632;2022-11-10T05:20:10;50.25;43.00;27.00
21358;PMS7003;13506;50.852;20.632;2022-11-10T05:22:56;52.80;42.00;26.60
21358;PMS7003;13506;50.852;20.632;2022-11-10T05:26:02;47.75;40.75;25.50
21358;PMS7003;13506;50.852;20.632;2022-11-10T05:28:49;47.40;42.20;25.80
21358;PMS7003;13506;50.852;20.632;2022-11-10T05:31:36;50.00;44.20;23.20
21358;PMS7003;13506;50.852;20.632;2022-11-10T05:34:22;43.40;41.60;26.60
21358;PMS7003;13506;50.852;20.632;2022-11-10T05:37:09;50.40;39.20;25.40
21358;PMS7003;13506;50.852;20.632;2022-11-10T05:39:55;50.75;41.25;26.75
21358;PMS7003;13506;50.852;20.632;2022-11-10T05:42:43;68.00;53.75;36.50
21358;PMS7003;13506;50.852;20.632;2022-11-10T05:45:31;64.25;49.25;30.50
21358;PMS7003;13506;50.852;20.632;2022-11-10T05:48:17;61.75;49.25;31.00
21358;PMS7003;13506;50.852;20.632;2022-11-10T05:51:04;70.00;54.00;32.00
21358;PMS7003;13506;50.852;20.632;2022-11-10T05:53:51;76.25;61.25;38.25
21358;PMS7003;13506;50.852;20.632;2022-11-10T05:56:37;74.50;59.75;38.00
21358;PMS7003;13506;50.852;20.632;2022-11-10T05:59:25;87.25;67.00;41.00
21358;PMS7003;13506;50.852;20.632;2022-11-10T06:02:11;87.75;66.50;41.75
21358;PMS7003;13506;50.852;20.632;2022-11-10T06:04:59;105.50;89.75;54.50
21358;PMS7003;13506;50.852;20.632;2022-11-10T06:07:46;124.75;103.00;61.00
21358;PMS7003;13506;50.852;20.632;2022-11-10T06:10:33;85.75;65.00;41.50
21358;PMS7003;13506;50.852;20.632;2022-11-10T06:13:20;81.25;62.50;38.25
21358;PMS7003;13506;50.852;20.632;2022-11-10T06:16:08;81.75;62.50;38.50
21358;PMS7003;13506;50.852;20.632;2022-11-10T06:18:54;69.75;54.50;34.00
21358;PMS7003;13506;50.852;20.632;2022-11-10T06:21:41;68.50;53.75;32.00
21358;PMS7003;13506;50.852;20.632;2022-11-10T06:24:28;49.75;46.00;28.25
21358;PMS7003;13506;50.852;20.632;2022-11-10T06:27:14;58.00;46.00;28.75
21358;PMS7003;13506;50.852;20.632;2022-11-10T06:30:00;50.75;43.75;29.50
21358;PMS7003;13506;50.852;20.632;2022-11-10T06:32:49;52.80;43.00;26.00
21358;PMS7003;13506;50.852;20.632;2022-11-10T06:35:34;46.50;40.00;25.25
21358;PMS7003;13506;50.852;20.632;2022-11-10T06:38:21;48.50;41.00;26.25
21358;PMS7003;13506;50.852;20.632;2022-11-10T06:41:07;51.25;44.50;28.75
21358;PMS7003;13506;50.852;20.632;2022-11-10T06:43:54;62.50;44.25;27.25
21358;PMS7003;13506;50.852;20.632;2022-11-10T06:46:41;60.25;47.75;29.00
21358;PMS7003;13506;50.852;20.632;2022-11-10T06:49:30;57.75;47.50;30.25
21358;PMS7003;13506;50.852;20.632;2022-11-10T06:52:16;62.75;48.50;30.50
21358;PMS7003;13506;50.852;20.632;2022-11-10T06:55:03;64.50;52.00;34.75
21358;PMS7003;13506;50.852;20.632;2022-11-10T06:57:50;72.50;53.75;35.00
21358;PMS7003;13506;50.852;20.632;2022-11-10T07:00:37;76.25;58.25;37.75
21358;PMS7003;13506;50.852;20.632;2022-11-10T07:03:24;75.25;60.00;38.25
21358;PMS7003;13506;50.852;20.632;2022-11-10T07:06:12;68.25;53.00;34.25
21358;PMS7003;13506;50.852;20.632;2022-11-10T07:08:57;67.75;53.25;33.25
21358;PMS7003;13506;50.852;20.632;2022-11-10T07:11:43;67.00;52.00;33.50
21358;PMS7003;13506;50.852;20.632;2022-11-10T07:14:30;64.50;51.50;33.25
21358;PMS7003;13506;50.852;20.632;2022-11-10T07:17:17;70.00;54.75;33.75
21358;PMS7003;13506;50.852;20.632;2022-11-10T07:20:04;72.75;58.50;36.75
21358;PMS7003;13506;50.852;20.632;2022-11-10T07:22:57;70.00;56.50;35.50
21358;PMS7003;13506;50.852;20.632;2022-11-10T07:25:44;68.25;54.50;35.75
21358;PMS7003;13506;50.852;20.632;2022-11-10T07:28:31;76.25;60.50;37.75
21358;PMS7003;13506;50.852;20.632;2022-11-10T07:31:18;89.50;69.25;44.00
21358;PMS7003;13506;50.852;20.632;2022-11-10T07:34:04;83.50;63.75;41.25
21358;PMS7003;13506;50.852;20.632;2022-11-10T07:36:51;78.50;60.75;38.25
21358;PMS7003;13506;50.852;20.632;2022-11-10T07:39:39;73.75;59.50;38.75
21358;PMS7003;13506;50.852;20.632;2022-11-10T07:42:25;72.50;58.00;36.25
21358;PMS7003;13506;50.852;20.632;2022-11-10T07:45:12;78.00;60.50;37.25
21358;PMS7003;13506;50.852;20.632;2022-11-10T07:47:59;78.00;61.00;39.00
21358;PMS7003;13506;50.852;20.632;2022-11-10T07:50:45;81.50;62.00;39.25
21358;PMS7003;13506;50.852;20.632;2022-11-10T07:53:32;89.25;69.00;46.00
21358;PMS7003;13506;50.852;20.632;2022-11-10T07:56:20;93.75;72.50;47.75
21358;PMS7003;13506;50.852;20.632;2022-11-10T07:59:06;92.50;68.00;43.75
21358;PMS7003;13506;50.852;20.632;2022-11-10T08:01:53;85.75;66.75;43.50
21358;PMS7003;13506;50.852;20.632;2022-11-10T08:04:40;90.00;64.75;41.75
21358;PMS7003;13506;50.852;20.632;2022-11-10T08:07:26;84.50;61.75;39.25
21358;PMS7003;13506;50.852;20.632;2022-11-10T08:10:14;75.50;61.25;38.00
21358;PMS7003;13506;50.852;20.632;2022-11-10T08:13:03;77.00;58.00;36.25
21358;PMS7003;13506;50.852;20.632;2022-11-10T08:15:51;73.50;57.25;38.25
21358;PMS7003;13506;50.852;20.632;2022-11-10T08:18:37;71.00;56.00;37.00
21358;PMS7003;13506;50.852;20.632;2022-11-10T08:21:23;70.75;57.25;37.00
21358;PMS7003;13506;50.852;20.632;2022-11-10T08:24:10;75.75;57.25;37.25
21358;PMS7003;13506;50.852;20.632;2022-11-10T08:26:56;74.75;56.25;36.25
21358;PMS7003;13506;50.852;20.632;2022-11-10T08:29:44;58.50;47.50;30.50
21358;PMS7003;13506;50.852;20.632;2022-11-10T08:32:30;62.75;50.00;30.00
21358;PMS7003;13506;50.852;20.632;2022-11-10T08:35:16;58.75;46.50;29.25
21358;PMS7003;13506;50.852;20.632;2022-11-10T08:38:05;56.75;44.00;28.00
21358;PMS7003;13506;50.852;20.632;2022-11-10T08:40:54;51.80;42.60;25.20
21358;PMS7003;13506;50.852;20.632;2022-11-10T08:43:41;48.50;41.25;27.00
21358;PMS7003;13506;50.852;20.632;2022-11-10T08:46:30;49.40;42.20;26.60
21358;PMS7003;13506;50.852;20.632;2022-11-10T08:49:16;54.40;42.20;26.20
21358;PMS7003;13506;50.852;20.632;2022-11-10T08:52:02;52.75;45.00;27.00
21358;PMS7003;13506;50.852;20.632;2022-11-10T08:54:49;58.75;43.75;27.50
21358;PMS7003;13506;50.852;20.632;2022-11-10T08:57:35;54.50;44.00;28.75
21358;PMS7003;13506;50.852;20.632;2022-11-10T09:00:21;49.50;43.00;27.00
21358;PMS7003;13506;50.852;20.632;2022-11-10T09:03:11;45.20;38.40;24.60
21358;PMS7003;13506;50.852;20.632;2022-11-10T09:05:59;54.75;42.25;26.50
21358;PMS7003;13506;50.852;20.632;2022-11-10T09:08:46;45.40;40.60;24.60
21358;PMS7003;13506;50.852;20.632;2022-11-10T09:11:32;43.80;38.80;23.60
21358;PMS7003;13506;50.852;20.632;2022-11-10T09:14:18;40.60;36.20;20.40
21358;PMS7003;13506;50.852;20.632;2022-11-10T09:17:04;48.80;40.00;25.00
21358;PMS7003;13506;50.852;20.632;2022-11-10T09:19:52;40.20;35.00;21.60
21358;PMS7003;13506;50.852;20.632;2022-11-10T09:22:38;40.00;36.00;21.40
21358;PMS7003;13506;50.852;20.632;2022-11-10T09:25:25;40.60;34.60;19.80
21358;PMS7003;13506;50.852;20.632;2022-11-10T09:28:13;37.00;34.80;21.40
21358;PMS7003;13506;50.852;20.632;2022-11-10T09:31:00;45.00;41.75;25.00
21358;PMS7003;13506;50.852;20.632;2022-11-10T09:33:46;48.40;40.00;25.60
21358;PMS7003;13506;50.852;20.632;2022-11-10T09:36:34;49.80;41.60;26.40
21358;PMS7003;13506;50.852;20.632;2022-11-10T09:39:20;55.60;40.00;25.20
21358;PMS7003;13506;50.852;20.632;2022-11-10T09:42:13;50.00;41.25;26.00
21358;PMS7003;13506;50.852;20.632;2022-11-10T09:45:20;55.00;42.00;25.50
21358;PMS7003;13506;50.852;20.632;2022-11-10T09:48:14;54.50;38.75;24.00
21358;PMS7003;13506;50.852;20.632;2022-11-10T09:51:04;47.00;41.40;24.20
21358;PMS7003;13506;50.852;20.632;2022-11-10T09:53:55;50.80;40.60;25.00
21358;PMS7003;13506;50.852;20.632;2022-11-10T09:56:45;42.60;36.40;20.60
21358;PMS7003;13506;50.852;20.632;2022-11-10T09:59:32;43.00;34.20;19.20
21358;PMS7003;13506;50.852;20.632;2022-11-10T10:02:22;47.80;36.20;23.00
21358;PMS7003;13506;50.852;20.632;2022-11-10T10:08:38;42.20;32.60;19.80
21358;PMS7003;13506;50.852;20.632;2022-11-10T10:11:41;44.00;35.20;18.40
21358;PMS7003;13506;50.852;20.632;2022-11-10T10:14:51;35.20;30.00;18.80
21358;PMS7003;13506;50.852;20.632;2022-11-10T10:18:01;36.00;29.60;17.20
21358;PMS7003;13506;50.852;20.632;2022-11-10T10:21:05;34.40;30.00;17.40
21358;PMS7003;13506;50.852;20.632;2022-11-10T10:24:20;26.40;22.80;12.60
21358;PMS7003;13506;50.852;20.632;2022-11-10T10:27:14;25.40;23.80;11.20
21358;PMS7003;13506;50.852;20.632;2022-11-10T10:30:10;29.20;24.20;13.60
21358;PMS7003;13506;50.852;20.632;2022-11-10T10:32:59;24.00;22.60;13.20
21358;PMS7003;13506;50.852;20.632;2022-11-10T10:35:57;26.20;23.20;13.00
21358;PMS7003;13506;50.852;20.632;2022-11-10T10:38:51;26.20;20.60;11.20
21358;PMS7003;13506;50.852;20.632;2022-11-10T10:41:43;24.20;20.40;11.60
21358;PMS7003;13506;50.852;20.632;2022-11-10T10:44:31;30.40;26.40;15.60
21358;PMS7003;13506;50.852;20.632;2022-11-10T10:47:17;27.20;23.80;11.80
21358;PMS7003;13506;50.852;20.632;2022-11-10T10:50:24;23.60;20.40;11.20
21358;PMS7003;13506;50.852;20.632;2022-11-10T10:53:16;26.20;21.80;10.80
21358;PMS7003;13506;50.852;20.632;2022-11-10T10:56:06;26.00;20.20;10.00
21358;PMS7003;13506;50.852;20.632;2022-11-10T10:59:02;27.00;24.00;15.00
21358;PMS7003;13506;50.852;20.632;2022-11-10T11:01:53;30.00;26.20;13.80
21358;PMS7003;13506;50.852;20.632;2022-11-10T11:04:40;24.20;22.00;13.00
21358;PMS7003;13506;50.852;20.632;2022-11-10T11:07:26;25.20;24.00;13.80
21358;PMS7003;13506;50.852;20.632;2022-11-10T11:10:17;23.60;20.00;11.40
21358;PMS7003;13506;50.852;20.632;2022-11-10T11:13:15;28.60;23.60;13.60
21358;PMS7003;13506;50.852;20.632;2022-11-10T11:16:08;30.40;23.80;14.00
21358;PMS7003;13506;50.852;20.632;2022-11-10T11:18:56;22.40;20.80;12.00
21358;PMS7003;13506;50.852;20.632;2022-11-10T11:21:47;24.60;21.60;11.00
21358;PMS7003;13506;50.852;20.632;2022-11-10T11:24:50;22.00;20.60;12.40
21358;PMS7003;13506;50.852;20.632;2022-11-10T11:27:46;22.80;20.00;11.40
21358;PMS7003;13506;50.852;20.632;2022-11-10T11:30:46;25.00;20.00;12.60
21358;PMS7003;13506;50.852;20.632;2022-11-10T11:33:45;30.60;25.00;13.80
21358;PMS7003;13506;50.852;20.632;2022-11-10T11:36:38;31.40;26.20;15.00
21358;PMS7003;13506;50.852;20.632;2022-11-10T11:39:37;24.60;23.20;11.20
21358;PMS7003;13506;50.852;20.632;2022-11-10T11:42:38;30.00;25.60;14.80
21358;PMS7003;13506;50.852;20.632;2022-11-10T11:45:38;27.20;26.40;17.00
21358;PMS7003;13506;50.852;20.632;2022-11-10T11:48:54;30.00;22.60;12.80
21358;PMS7003;13506;50.852;20.632;2022-11-10T11:51:56;38.60;29.60;15.80
21358;PMS7003;13506;50.852;20.632;2022-11-10T11:55:01;31.80;29.20;15.20
21358;PMS7003;13506;50.852;20.632;2022-11-10T11:58:13;32.40;23.20;14.20
21358;PMS7003;13506;50.852;20.632;2022-11-10T12:01:22;29.40;26.40;14.60
21358;PMS7003;13506;50.852;20.632;2022-11-10T12:07:36;24.60;23.00;14.00
21358;PMS7003;13506;50.852;20.632;2022-11-10T12:10:35;26.20;22.60;12.20
21358;PMS7003;13506;50.852;20.632;2022-11-10T12:13:40;30.20;24.80;14.20
21358;PMS7003;13506;50.852;20.632;2022-11-10T12:16:41;24.80;23.40;13.00
21358;PMS7003;13506;50.852;20.632;2022-11-10T12:19:37;28.20;22.40;12.40
21358;PMS7003;13506;50.852;20.632;2022-11-10T12:22:36;34.20;21.60;14.20
21358;PMS7003;13506;50.852;20.632;2022-11-10T12:25:30;26.80;23.20;11.80
21358;PMS7003;13506;50.852;20.632;2022-11-10T12:28:29;27.80;20.80;13.60
21358;PMS7003;13506;50.852;20.632;2022-11-10T12:31:21;26.40;22.60;12.40
21358;PMS7003;13506;50.852;20.632;2022-11-10T12:34:14;26.60;22.80;11.00
21358;PMS7003;13506;50.852;20.632;2022-11-10T12:37:15;26.80;23.20;14.40
21358;PMS7003;13506;50.852;20.632;2022-11-10T12:40:12;27.40;21.60;11.80
21358;PMS7003;13506;50.852;20.632;2022-11-10T12:43:03;24.20;22.40;14.80
21358;PMS7003;13506;50.852;20.632;2022-11-10T12:45:53;23.00;20.80;13.40
21358;PMS7003;13506;50.852;20.632;2022-11-10T12:48:46;25.40;22.60;11.40
21358;PMS7003;13506;50.852;20.632;2022-11-10T12:51:47;25.40;22.80;12.00
21358;PMS7003;13506;50.852;20.632;2022-11-10T12:54:43;28.80;22.20;11.20
21358;PMS7003;13506;50.852;20.632;2022-11-10T12:57:32;25.80;23.00;12.00
21358;PMS7003;13506;50.852;20.632;2022-11-10T13:00:24;25.40;23.80;15.20
21358;PMS7003;13506;50.852;20.632;2022-11-10T13:03:14;26.80;22.40;13.60
21358;PMS7003;13506;50.852;20.632;2022-11-10T13:06:22;24.00;19.80;11.20
21358;PMS7003;13506;50.852;20.632;2022-11-10T13:12:18;26.00;24.60;14.80
21358;PMS7003;13506;50.852;20.632;2022-11-10T13:22:08;26.00;20.80;11.00
21358;PMS7003;13506;50.852;20.632;2022-11-10T13:28:58;21.00;17.80;9.20
21358;PMS7003;13506;50.852;20.632;2022-11-10T13:31:51;20.40;18.00;11.20
21358;PMS7003;13506;50.852;20.632;2022-11-10T13:34:41;20.20;17.00;11.00
21358;PMS7003;13506;50.852;20.632;2022-11-10T13:37:44;20.80;17.00;10.00
21358;PMS7003;13506;50.852;20.632;2022-11-10T13:40:34;24.40;23.20;12.40
21358;PMS7003;13506;50.852;20.632;2022-11-10T13:43:24;27.80;20.80;11.80
21358;PMS7003;13506;50.852;20.632;2022-11-10T13:46:11;20.80;16.80;10.80
21358;PMS7003;13506;50.852;20.632;2022-11-10T13:52:13;19.40;15.40;8.00
21358;PMS7003;13506;50.852;20.632;2022-11-10T13:55:07;16.00;16.00;8.00
21358;PMS7003;13506;50.852;20.632;2022-11-10T13:58:07;17.00;16.80;9.60
21358;PMS7003;13506;50.852;20.632;2022-11-10T14:01:23;16.00;14.60;8.00
21358;PMS7003;13506;50.852;20.632;2022-11-10T14:07:26;19.60;17.60;9.00
21358;PMS7003;13506;50.852;20.632;2022-11-10T14:10:22;22.00;14.80;9.80
21358;PMS7003;13506;50.852;20.632;2022-11-10T14:13:21;15.20;12.80;7.00
21358;PMS7003;13506;50.852;20.632;2022-11-10T14:16:17;14.20;14.20;7.80
21358;PMS7003;13506;50.852;20.632;2022-11-10T14:19:14;16.80;15.00;7.40
21358;PMS7003;13506;50.852;20.632;2022-11-10T14:22:25;21.80;17.00;10.00
21358;PMS7003;13506;50.852;20.632;2022-11-10T14:25:18;18.20;16.40;10.00
21358;PMS7003;13506;50.852;20.632;2022-11-10T14:28:21;19.60;16.60;8.60
21358;PMS7003;13506;50.852;20.632;2022-11-10T14:31:15;15.60;15.60;8.60
21358;PMS7003;13506;50.852;20.632;2022-11-10T14:34:11;16.40;16.00;10.20
21358;PMS7003;13506;50.852;20.632;2022-11-10T14:37:00;21.40;16.80;10.20
21358;PMS7003;13506;50.852;20.632;2022-11-10T14:39:51;20.00;18.60;10.40
21358;PMS7003;13506;50.852;20.632;2022-11-10T14:42:40;17.40;15.20;9.40
21358;PMS7003;13506;50.852;20.632;2022-11-10T14:45:28;16.40;13.60;7.40
21358;PMS7003;13506;50.852;20.632;2022-11-10T14:48:15;16.60;14.80;7.20
21358;PMS7003;13506;50.852;20.632;2022-11-10T14:51:04;21.40;19.20;9.20
21358;PMS7003;13506;50.852;20.632;2022-11-10T14:53:57;16.20;15.40;9.60
21358;PMS7003;13506;50.852;20.632;2022-11-10T14:56:47;15.20;14.40;7.20
21358;PMS7003;13506;50.852;20.632;2022-11-10T14:59:33;19.40;17.20;10.00
21358;PMS7003;13506;50.852;20.632;2022-11-10T15:02:23;26.40;21.00;11.40
21358;PMS7003;13506;50.852;20.632;2022-11-10T15:05:11;25.40;22.20;14.20
21358;PMS7003;13506;50.852;20.632;2022-11-10T15:07:59;31.80;27.40;13.60
21358;PMS7003;13506;50.852;20.632;2022-11-10T15:10:49;27.00;21.20;13.80
21358;PMS7003;13506;50.852;20.632;2022-11-10T15:13:40;24.60;22.40;14.00
21358;PMS7003;13506;50.852;20.632;2022-11-10T15:16:27;28.20;24.00;15.00
21358;PMS7003;13506;50.852;20.632;2022-11-10T15:19:21;25.60;20.60;11.00
21358;PMS7003;13506;50.852;20.632;2022-11-10T15:22:12;20.20;18.60;13.20
21358;PMS7003;13506;50.852;20.632;2022-11-10T15:25:07;22.20;19.20;12.00
21358;PMS7003;13506;50.852;20.632;2022-11-10T15:28:01;20.60;18.80;10.40
21358;PMS7003;13506;50.852;20.632;2022-11-10T15:31:11;24.00;20.60;11.00
21358;PMS7003;13506;50.852;20.632;2022-11-10T15:34:05;22.20;20.80;12.00
21358;PMS7003;13506;50.852;20.632;2022-11-10T15:37:23;23.40;20.00;12.40
21358;PMS7003;13506;50.852;20.632;2022-11-10T15:40:34;20.80;18.40;11.60
21358;PMS7003;13506;50.852;20.632;2022-11-10T15:43:29;24.20;21.20;12.40
21358;PMS7003;13506;50.852;20.632;2022-11-10T15:46:17;22.60;19.60;11.00
21358;PMS7003;13506;50.852;20.632;2022-11-10T15:49:09;24.40;18.60;12.80
21358;PMS7003;13506;50.852;20.632;2022-11-10T15:52:05;26.00;21.00;11.40
21358;PMS7003;13506;50.852;20.632;2022-11-10T15:54:59;27.40;23.00;13.20
21358;PMS7003;13506;50.852;20.632;2022-11-10T15:57:45;31.40;26.20;15.40
21358;PMS7003;13506;50.852;20.632;2022-11-10T16:00:32;26.80;24.80;15.00
21358;PMS7003;13506;50.852;20.632;2022-11-10T16:03:20;39.20;32.40;16.20
21358;PMS7003;13506;50.852;20.632;2022-11-10T16:06:09;33.80;31.60;19.00
21358;PMS7003;13506;50.852;20.632;2022-11-10T16:08:57;32.80;27.60;16.20